sensor_id;sensor_type;location;lat;lon;timestamp;P1;durP1;ratioP1;P2;durP2;ratioP2
38162;SDS011;23977;53.078;18.248;2024-01-15T00:02:23;11.57;;;7.30;;
38162;SDS011;23977;53.078;18.248;2024-01-15T00:04:50;11.27;;;7.10;;
38162;SDS011;23977;53.078;18.248;2024-01-15T00:07:17;11.07;;;7.10;;
38162;SDS011;23977;53.078;18.248;2024-01-15T00:09:44;11.95;;;7.38;;
38162;SDS011;23977;53.078;18.248;2024-01-15T00:12:12;11.73;;;7.32;;
38162;SDS011;23977;53.078;18.248;2024-01-15T00:14:38;11.82;;;7.15;;
38162;SDS011;23977;53.078;18.248;2024-01-15T00:17:05;11.20;;;7.28;;
38162;SDS011;23977;53.078;18.248;2024-01-15T00:19:31;13.82;;;7.95;;
38162;SDS011;23977;53.078;18.248;2024-01-15T00:21:58;12.95;;;8.30;;
38162;SDS011;23977;53.078;18.248;2024-01-15T00:24:25;11.93;;;7.60;;
38162;SDS011;23977;53.078;18.248;2024-01-15T00:26:52;12.55;;;7.68;;
38162;SDS011;23977;53.078;18.248;2024-01-15T00:29:19;11.32;;;7.70;;
38162;SDS011;23977;53.078;18.248;2024-01-15T00:31:50;11.88;;;8.05;;
38162;SDS011;23977;53.078;18.248;2024-01-15T00:34:16;13.20;;;8.27;;
38162;SDS011;23977;53.078;18.248;2024-01-15T00:36:43;12.02;;;8.15;;
38162;SDS011;23977;53.078;18.248;2024-01-15T00:39:09;12.55;;;8.45;;
38162;SDS011;23977;53.078;18.248;2024-01-15T00:41:37;12.15;;;8.45;;
38162;SDS011;23977;53.078;18.248;2024-01-15T00:44:04;13.07;;;8.25;;
38162;SDS011;23977;53.078;18.248;2024-01-15T00:46:31;13.27;;;8.50;;
38162;SDS011;23977;53.078;18.248;2024-01-15T00:48:57;13.18;;;8.70;;
38162;SDS011;23977;53.078;18.248;2024-01-15T00:51:25;13.07;;;8.90;;
38162;SDS011;23977;53.078;18.248;2024-01-15T00:53:51;12.23;;;8.32;;
38162;SDS011;23977;53.078;18.248;2024-01-15T00:56:17;13.32;;;9.18;;
38162;SDS011;23977;53.078;18.248;2024-01-15T00:58:43;13.85;;;8.80;;
38162;SDS011;23977;53.078;18.248;2024-01-15T01:01:11;13.45;;;8.88;;
38162;SDS011;23977;53.078;18.248;2024-01-15T01:03:36;12.98;;;8.48;;
38162;SDS011;23977;53.078;18.248;2024-01-15T01:06:03;13.02;;;8.32;;
38162;SDS011;23977;53.078;18.248;2024-01-15T01:08:30;12.43;;;8.63;;
38162;SDS011;23977;53.078;18.248;2024-01-15T01:10:57;13.13;;;8.43;;
38162;SDS011;23977;53.078;18.248;2024-01-15T01:13:23;12.00;;;8.02;;
38162;SDS011;23977;53.078;18.248;2024-01-15T01:15:50;11.55;;;8.13;;
38162;SDS011;23977;53.078;18.248;2024-01-15T01:18:16;12.05;;;8.05;;
38162;SDS011;23977;53.078;18.248;2024-01-15T01:20:44;12.15;;;8.27;;
38162;SDS011;23977;53.078;18.248;2024-01-15T01:23:10;11.70;;;8.02;;
38162;SDS011;23977;53.078;18.248;2024-01-15T01:25:37;12.40;;;7.75;;
38162;SDS011;23977;53.078;18.248;2024-01-15T01:28:03;12.48;;;8.18;;
38162;SDS011;23977;53.078;18.248;2024-01-15T01:30:30;12.25;;;8.05;;
38162;SDS011;23977;53.078;18.248;2024-01-15T01:32:56;12.20;;;7.88;;
38162;SDS011;23977;53.078;18.248;2024-01-15T01:35:22;12.63;;;7.82;;
38162;SDS011;23977;53.078;18.248;2024-01-15T01:37:48;13.43;;;8.27;;
38162;SDS011;23977;53.078;18.248;2024-01-15T01:40:15;11.52;;;7.55;;
38162;SDS011;23977;53.078;18.248;2024-01-15T01:42:41;11.60;;;7.80;;
38162;SDS011;23977;53.078;18.248;2024-01-15T01:45:08;11.73;;;7.65;;
38162;SDS011;23977;53.078;18.248;2024-01-15T01:47:34;11.18;;;7.30;;
38162;SDS011;23977;53.078;18.248;2024-01-15T01:50:02;10.70;;;7.28;;
38162;SDS011;23977;53.078;18.248;2024-01-15T01:52:28;11.32;;;7.20;;
38162;SDS011;23977;53.078;18.248;2024-01-15T01:54:55;11.02;;;7.47;;
38162;SDS011;23977;53.078;18.248;2024-01-15T01:57:22;9.90;;;7.20;;
38162;SDS011;23977;53.078;18.248;2024-01-15T01:59:50;11.25;;;7.35;;
38162;SDS011;23977;53.078;18.248;2024-01-15T02:02:17;10.50;;;6.82;;
38162;SDS011;23977;53.078;18.248;2024-01-15T02:04:44;10.35;;;6.90;;
38162;SDS011;23977;53.078;18.248;2024-01-15T02:07:13;10.80;;;7.10;;
38162;SDS011;23977;53.078;18.248;2024-01-15T02:09:44;11.90;;;7.38;;
38162;SDS011;23977;53.078;18.248;2024-01-15T02:12:10;10.70;;;7.13;;
38162;SDS011;23977;53.078;18.248;2024-01-15T02:14:37;12.02;;;7.03;;
38162;SDS011;23977;53.078;18.248;2024-01-15T02:17:05;9.98;;;6.72;;
38162;SDS011;23977;53.078;18.248;2024-01-15T02:19:32;10.38;;;7.28;;
38162;SDS011;23977;53.078;18.248;2024-01-15T02:21:58;11.30;;;6.95;;
38162;SDS011;23977;53.078;18.248;2024-01-15T02:24:25;11.15;;;7.07;;
38162;SDS011;23977;53.078;18.248;2024-01-15T02:26:51;10.23;;;6.90;;
38162;SDS011;23977;53.078;18.248;2024-01-15T02:29:18;11.68;;;7.32;;
38162;SDS011;23977;53.078;18.248;2024-01-15T02:31:44;10.73;;;7.00;;
38162;SDS011;23977;53.078;18.248;2024-01-15T02:34:11;9.55;;;6.43;;
38162;SDS011;23977;53.078;18.248;2024-01-15T02:36:37;10.35;;;6.50;;
38162;SDS011;23977;53.078;18.248;2024-01-15T02:39:03;10.70;;;6.90;;
38162;SDS011;23977;53.078;18.248;2024-01-15T02:41:30;9.60;;;6.47;;
38162;SDS011;23977;53.078;18.248;2024-01-15T02:43:57;10.07;;;6.47;;
38162;SDS011;23977;53.078;18.248;2024-01-15T02:46:23;9.93;;;5.93;;
38162;SDS011;23977;53.078;18.248;2024-01-15T02:48:49;9.80;;;6.20;;
38162;SDS011;23977;53.078;18.248;2024-01-15T02:51:16;9.13;;;6.03;;
38162;SDS011;23977;53.078;18.248;2024-01-15T02:53:43;9.95;;;6.40;;
38162;SDS011;23977;53.078;18.248;2024-01-15T02:56:09;9.60;;;6.07;;
38162;SDS011;23977;53.078;18.248;2024-01-15T02:58:36;9.77;;;6.40;;
38162;SDS011;23977;53.078;18.248;2024-01-15T03:01:02;9.35;;;6.05;;
38162;SDS011;23977;53.078;18.248;2024-01-15T03:03:29;9.93;;;6.53;;
38162;SDS011;23977;53.078;18.248;2024-01-15T03:05:55;9.73;;;6.35;;
38162;SDS011;23977;53.078;18.248;2024-01-15T03:08:22;10.80;;;6.97;;
38162;SDS011;23977;53.078;18.248;2024-01-15T03:10:49;10.82;;;6.75;;
38162;SDS011;23977;53.078;18.248;2024-01-15T03:13:16;12.10;;;7.13;;
38162;SDS011;23977;53.078;18.248;2024-01-15T03:15:44;11.55;;;7.47;;
38162;SDS011;23977;53.078;18.248;2024-01-15T03:18:11;10.70;;;6.68;;
38162;SDS011;23977;53.078;18.248;2024-01-15T03:20:37;11.77;;;7.63;;
38162;SDS011;23977;53.078;18.248;2024-01-15T03:23:04;10.50;;;7.22;;
38162;SDS011;23977;53.078;18.248;2024-01-15T03:25:30;11.00;;;7.15;;
38162;SDS011;23977;53.078;18.248;2024-01-15T03:27:57;12.10;;;7.15;;
38162;SDS011;23977;53.078;18.248;2024-01-15T03:30:23;13.50;;;8.25;;
38162;SDS011;23977;53.078;18.248;2024-01-15T03:32:50;11.88;;;7.28;;
38162;SDS011;23977;53.078;18.248;2024-01-15T03:35:16;11.70;;;7.38;;
38162;SDS011;23977;53.078;18.248;2024-01-15T03:37:42;12.55;;;7.60;;
38162;SDS011;23977;53.078;18.248;2024-01-15T03:40:09;12.70;;;7.80;;
38162;SDS011;23977;53.078;18.248;2024-01-15T03:42:36;12.00;;;7.63;;
38162;SDS011;23977;53.078;18.248;2024-01-15T03:45:02;12.43;;;7.78;;
38162;SDS011;23977;53.078;18.248;2024-01-15T03:47:29;12.20;;;7.65;;
38162;SDS011;23977;53.078;18.248;2024-01-15T03:49:55;13.68;;;8.30;;
38162;SDS011;23977;53.078;18.248;2024-01-15T03:52:22;12.45;;;7.97;;
38162;SDS011;23977;53.078;18.248;2024-01-15T03:54:48;12.52;;;7.85;;
38162;SDS011;23977;53.078;18.248;2024-01-15T03:57:15;13.73;;;8.23;;
38162;SDS011;23977;53.078;18.248;2024-01-15T03:59:41;12.73;;;8.02;;
38162;SDS011;23977;53.078;18.248;2024-01-15T04:02:08;13.55;;;8.27;;
38162;SDS011;23977;53.078;18.248;2024-01-15T04:04:34;13.15;;;7.90;;
38162;SDS011;23977;53.078;18.248;2024-01-15T04:07:02;13.88;;;8.57;;
38162;SDS011;23977;53.078;18.248;2024-01-15T04:09:31;12.93;;;8.02;;
38162;SDS011;23977;53.078;18.248;2024-01-15T04:11:59;12.50;;;7.93;;
38162;SDS011;23977;53.078;18.248;2024-01-15T04:14:25;13.32;;;8.18;;
38162;SDS011;23977;53.078;18.248;2024-01-15T04:16:52;13.93;;;8.27;;
38162;SDS011;23977;53.078;18.248;2024-01-15T04:19:18;12.68;;;7.68;;
38162;SDS011;23977;53.078;18.248;2024-01-15T04:21:45;14.07;;;8.15;;
38162;SDS011;23977;53.078;18.248;2024-01-15T04:24:12;13.05;;;7.78;;
38162;SDS011;23977;53.078;18.248;2024-01-15T04:26:39;13.48;;;8.23;;
38162;SDS011;23977;53.078;18.248;2024-01-15T04:29:08;13.23;;;8.25;;
38162;SDS011;23977;53.078;18.248;2024-01-15T04:31:35;13.30;;;7.88;;
38162;SDS011;23977;53.078;18.248;2024-01-15T04:34:02;15.05;;;8.80;;
38162;SDS011;23977;53.078;18.248;2024-01-15T04:36:28;15.63;;;8.65;;
38162;SDS011;23977;53.078;18.248;2024-01-15T04:38:54;14.23;;;8.48;;
38162;SDS011;23977;53.078;18.248;2024-01-15T04:41:21;14.05;;;8.27;;
38162;SDS011;23977;53.078;18.248;2024-01-15T04:43:48;14.98;;;8.45;;
38162;SDS011;23977;53.078;18.248;2024-01-15T04:46:15;14.95;;;8.80;;
38162;SDS011;23977;53.078;18.248;2024-01-15T04:48:41;16.45;;;9.40;;
38162;SDS011;23977;53.078;18.248;2024-01-15T04:51:09;15.10;;;9.38;;
38162;SDS011;23977;53.078;18.248;2024-01-15T04:53:36;15.85;;;8.77;;
38162;SDS011;23977;53.078;18.248;2024-01-15T04:56:03;12.80;;;7.85;;
38162;SDS011;23977;53.078;18.248;2024-01-15T04:58:29;11.35;;;7.13;;
38162;SDS011;23977;53.078;18.248;2024-01-15T05:00:56;12.05;;;6.72;;
38162;SDS011;23977;53.078;18.248;2024-01-15T05:03:23;10.55;;;6.53;;
38162;SDS011;23977;53.078;18.248;2024-01-15T05:05:50;10.75;;;6.45;;
38162;SDS011;23977;53.078;18.248;2024-01-15T05:08:16;10.82;;;6.40;;
38162;SDS011;23977;53.078;18.248;2024-01-15T05:10:42;10.13;;;6.00;;
38162;SDS011;23977;53.078;18.248;2024-01-15T05:13:09;8.93;;;5.60;;
38162;SDS011;23977;53.078;18.248;2024-01-15T05:15:36;9.95;;;5.70;;
38162;SDS011;23977;53.078;18.248;2024-01-15T05:18:02;9.63;;;5.97;;
38162;SDS011;23977;53.078;18.248;2024-01-15T05:20:29;9.88;;;5.55;;
38162;SDS011;23977;53.078;18.248;2024-01-15T05:22:55;9.20;;;5.40;;
38162;SDS011;23977;53.078;18.248;2024-01-15T05:25:22;12.65;;;5.75;;
38162;SDS011;23977;53.078;18.248;2024-01-15T05:27:48;10.07;;;5.40;;
38162;SDS011;23977;53.078;18.248;2024-01-15T05:30:15;9.88;;;5.20;;
38162;SDS011;23977;53.078;18.248;2024-01-15T05:32:42;7.72;;;4.35;;
38162;SDS011;23977;53.078;18.248;2024-01-15T05:35:09;10.35;;;5.30;;
38162;SDS011;23977;53.078;18.248;2024-01-15T05:37:36;9.02;;;4.30;;
38162;SDS011;23977;53.078;18.248;2024-01-15T05:40:03;7.63;;;4.38;;
38162;SDS011;23977;53.078;18.248;2024-01-15T05:42:30;9.32;;;4.50;;
38162;SDS011;23977;53.078;18.248;2024-01-15T05:44:57;9.10;;;3.80;;
38162;SDS011;23977;53.078;18.248;2024-01-15T05:47:25;8.35;;;3.42;;
38162;SDS011;23977;53.078;18.248;2024-01-15T05:49:54;6.63;;;3.42;;
38162;SDS011;23977;53.078;18.248;2024-01-15T05:52:21;7.47;;;3.78;;
38162;SDS011;23977;53.078;18.248;2024-01-15T05:54:49;9.35;;;3.78;;
38162;SDS011;23977;53.078;18.248;2024-01-15T05:57:16;7.88;;;3.38;;
38162;SDS011;23977;53.078;18.248;2024-01-15T05:59:44;7.53;;;3.40;;
38162;SDS011;23977;53.078;18.248;2024-01-15T06:02:10;8.38;;;3.00;;
38162;SDS011;23977;53.078;18.248;2024-01-15T06:04:38;5.53;;;2.92;;
38162;SDS011;23977;53.078;18.248;2024-01-15T06:07:04;6.35;;;2.72;;
38162;SDS011;23977;53.078;18.248;2024-01-15T06:09:34;13.35;;;4.97;;
38162;SDS011;23977;53.078;18.248;2024-01-15T06:12:01;17.45;;;7.35;;
38162;SDS011;23977;53.078;18.248;2024-01-15T06:15:25;7.15;;;3.05;;
38162;SDS011;23977;53.078;18.248;2024-01-15T06:18:06;12.45;;;5.57;;
38162;SDS011;23977;53.078;18.248;2024-01-15T06:21:05;8.73;;;3.70;;
38162;SDS011;23977;53.078;18.248;2024-01-15T06:23:37;7.60;;;3.35;;
38162;SDS011;23977;53.078;18.248;2024-01-15T06:26:05;9.90;;;3.55;;
38162;SDS011;23977;53.078;18.248;2024-01-15T06:28:37;9.20;;;3.53;;
38162;SDS011;23977;53.078;18.248;2024-01-15T06:31:23;8.15;;;3.40;;
38162;SDS011;23977;53.078;18.248;2024-01-15T06:33:56;8.82;;;3.65;;
38162;SDS011;23977;53.078;18.248;2024-01-15T06:36:24;9.32;;;3.80;;
38162;SDS011;23977;53.078;18.248;2024-01-15T06:38:56;8.20;;;3.97;;
38162;SDS011;23977;53.078;18.248;2024-01-15T06:41:24;8.85;;;4.07;;
38162;SDS011;23977;53.078;18.248;2024-01-15T06:43:57;7.88;;;3.95;;
38162;SDS011;23977;53.078;18.248;2024-01-15T06:46:24;8.38;;;4.07;;
38162;SDS011;23977;53.078;18.248;2024-01-15T06:48:52;9.77;;;4.80;;
38162;SDS011;23977;53.078;18.248;2024-01-15T06:51:19;7.15;;;4.13;;
38162;SDS011;23977;53.078;18.248;2024-01-15T06:53:49;7.63;;;4.35;;
38162;SDS011;23977;53.078;18.248;2024-01-15T06:56:16;11.43;;;4.20;;
38162;SDS011;23977;53.078;18.248;2024-01-15T06:58:46;7.97;;;4.00;;
38162;SDS011;23977;53.078;18.248;2024-01-15T07:01:13;10.32;;;4.00;;
38162;SDS011;23977;53.078;18.248;2024-01-15T07:03:40;6.63;;;3.42;;
38162;SDS011;23977;53.078;18.248;2024-01-15T07:06:07;8.35;;;3.70;;
38162;SDS011;23977;53.078;18.248;2024-01-15T07:08:36;7.78;;;3.83;;
38162;SDS011;23977;53.078;18.248;2024-01-15T07:11:05;7.38;;;3.75;;
38162;SDS011;23977;53.078;18.248;2024-01-15T07:13:36;8.35;;;3.58;;
38162;SDS011;23977;53.078;18.248;2024-01-15T07:16:04;8.25;;;3.70;;
38162;SDS011;23977;53.078;18.248;2024-01-15T07:18:30;8.38;;;4.00;;
38162;SDS011;23977;53.078;18.248;2024-01-15T07:20:57;8.60;;;4.05;;
38162;SDS011;23977;53.078;18.248;2024-01-15T07:23:26;7.72;;;4.13;;
38162;SDS011;23977;53.078;18.248;2024-01-15T07:25:52;9.43;;;4.35;;
38162;SDS011;23977;53.078;18.248;2024-01-15T07:28:20;8.20;;;3.92;;
38162;SDS011;23977;53.078;18.248;2024-01-15T07:30:46;9.20;;;4.40;;
38162;SDS011;23977;53.078;18.248;2024-01-15T07:33:14;9.75;;;4.20;;
38162;SDS011;23977;53.078;18.248;2024-01-15T07:35:42;9.55;;;4.63;;
38162;SDS011;23977;53.078;18.248;2024-01-15T07:38:10;8.77;;;4.90;;
38162;SDS011;23977;53.078;18.248;2024-01-15T07:40:39;9.55;;;4.95;;
38162;SDS011;23977;53.078;18.248;2024-01-15T07:43:08;12.57;;;5.40;;
38162;SDS011;23977;53.078;18.248;2024-01-15T07:45:36;11.55;;;4.53;;
38162;SDS011;23977;53.078;18.248;2024-01-15T07:48:05;9.40;;;4.90;;
38162;SDS011;23977;53.078;18.248;2024-01-15T07:50:32;10.82;;;5.47;;
38162;SDS011;23977;53.078;18.248;2024-01-15T07:53:01;11.35;;;5.40;;
38162;SDS011;23977;53.078;18.248;2024-01-15T07:55:28;9.68;;;4.97;;
38162;SDS011;23977;53.078;18.248;2024-01-15T07:57:55;9.68;;;4.60;;
38162;SDS011;23977;53.078;18.248;2024-01-15T08:00:25;12.35;;;5.90;;
38162;SDS011;23977;53.078;18.248;2024-01-15T08:03:10;16.08;;;6.38;;
38162;SDS011;23977;53.078;18.248;2024-01-15T08:05:38;41.05;;;15.40;;
38162;SDS011;23977;53.078;18.248;2024-01-15T08:08:10;20.23;;;8.70;;
38162;SDS011;23977;53.078;18.248;2024-01-15T08:10:37;43.10;;;16.73;;
38162;SDS011;23977;53.078;18.248;2024-01-15T08:13:21;52.60;;;18.00;;
38162;SDS011;23977;53.078;18.248;2024-01-15T08:15:50;38.05;;;13.02;;
38162;SDS011;23977;53.078;18.248;2024-01-15T08:18:17;14.93;;;7.03;;
38162;SDS011;23977;53.078;18.248;2024-01-15T08:21:01;25.98;;;10.70;;
38162;SDS011;23977;53.078;18.248;2024-01-15T08:23:29;10.52;;;5.22;;
38162;SDS011;23977;53.078;18.248;2024-01-15T08:25:58;13.07;;;5.53;;
38162;SDS011;23977;53.078;18.248;2024-01-15T08:28:40;12.88;;;5.47;;
38162;SDS011;23977;53.078;18.248;2024-01-15T08:31:08;10.10;;;4.78;;
38162;SDS011;23977;53.078;18.248;2024-01-15T08:33:35;9.10;;;4.63;;
38162;SDS011;23977;53.078;18.248;2024-01-15T08:36:11;9.60;;;4.57;;
38162;SDS011;23977;53.078;18.248;2024-01-15T08:38:39;9.77;;;4.70;;
38162;SDS011;23977;53.078;18.248;2024-01-15T08:41:08;9.50;;;4.90;;
38162;SDS011;23977;53.078;18.248;2024-01-15T08:43:37;10.65;;;4.40;;
38162;SDS011;23977;53.078;18.248;2024-01-15T08:46:07;11.25;;;4.80;;
38162;SDS011;23977;53.078;18.248;2024-01-15T08:48:33;9.45;;;4.90;;
38162;SDS011;23977;53.078;18.248;2024-01-15T08:51:03;10.18;;;5.20;;
38162;SDS011;23977;53.078;18.248;2024-01-15T08:53:30;10.88;;;5.07;;
38162;SDS011;23977;53.078;18.248;2024-01-15T08:56:00;9.10;;;4.35;;
38162;SDS011;23977;53.078;18.248;2024-01-15T08:58:31;10.55;;;4.47;;
38162;SDS011;23977;53.078;18.248;2024-01-15T09:01:24;9.32;;;3.78;;
38162;SDS011;23977;53.078;18.248;2024-01-15T09:04:03;9.50;;;4.47;;
38162;SDS011;23977;53.078;18.248;2024-01-15T09:06:31;12.23;;;5.13;;
38162;SDS011;23977;53.078;18.248;2024-01-15T09:08:59;10.85;;;4.40;;
38162;SDS011;23977;53.078;18.248;2024-01-15T09:11:27;10.18;;;3.88;;
38162;SDS011;23977;53.078;18.248;2024-01-15T09:13:55;9.80;;;3.72;;
38162;SDS011;23977;53.078;18.248;2024-01-15T09:16:25;8.45;;;4.18;;
38162;SDS011;23977;53.078;18.248;2024-01-15T09:19:01;9.73;;;4.10;;
38162;SDS011;23977;53.078;18.248;2024-01-15T09:21:38;10.10;;;4.20;;
38162;SDS011;23977;53.078;18.248;2024-01-15T09:24:15;11.77;;;4.57;;
38162;SDS011;23977;53.078;18.248;2024-01-15T09:26:45;12.68;;;4.28;;
38162;SDS011;23977;53.078;18.248;2024-01-15T09:29:12;14.30;;;6.03;;
38162;SDS011;23977;53.078;18.248;2024-01-15T09:31:45;10.95;;;4.00;;
38162;SDS011;23977;53.078;18.248;2024-01-15T10:53:33;11.40;;;4.35;;
38162;SDS011;23977;53.078;18.248;2024-01-15T14:11:32;5.95;;;2.10;;
38162;SDS011;23977;53.078;18.248;2024-01-15T14:16:52;6.63;;;2.38;;
38162;SDS011;23977;53.078;18.248;2024-01-15T14:19:55;7.45;;;2.83;;
